Torm Alexandra — 9V2614 — position and weather

sailwx.info

Track history (hours):
 
Tides and Currents Weather Stations Pressure Air Temp Water Temp Dewpoint Dewpoint Depression Visibility Wind Speed Wind Dir Waves Ship Positions

Torm Alexandra

Last reported at 2018-Jun-13 05:38 UTC. Time now 2018-Jul-22 12:34 UTC.
Position S 29°26' E 032°22'.
Warning: this ship's position is 39 days out of date.

Length 183 m; draft 8 m.

Type: Ship. MMSI: 564458000.

Date/timePositionNaut miles runAvg speedWind from/ knotsBaromVisibWave heightAir tempDewpointWater temp
2018-Jun-13 05:38S 29°26' E 032°22'110.0
2018-Jun-13 05:30S 29°27' E 032°21'510.1
2018-Jun-13 05:00S 29°29' E 032°15'510.0
2018-Jun-13 04:30S 29°31' E 032°10'5 9.9
2018-Jun-13 04:00S 29°33' E 032°05'5 9.7
2018-Jun-13 03:31S 29°34' E 031°60'5 9.5
2018-Jun-13 03:00S 29°36' E 031°54'5 9.4
2018-Jun-13 02:30S 29°38' E 031°50'5 9.5
2018-Jun-13 02:00S 29°40' E 031°45'5 9.3
2018-Jun-13 01:30S 29°41' E 031°40'510.2
2018-Jun-13 01:00S 29°43' E 031°34'611.3
2018-Jun-13 00:30S 29°45' E 031°28'611.7
2018-Jun-13 00:00S 29°48' E 031°22'611.6
2018-Jun-12 23:28S 29°49' E 031°15'511.9
2018-Jun-12 23:00S 29°50' E 031°09'510.2
2018-Jun-12 22:30S 29°52' E 031°03'2 2.9
2018-Jun-12 21:59S 29°53' E 031°02'0 0.0
2018-Jun-12 21:29S 29°53' E 031°02'0 0.0
2018-Jun-12 20:59S 29°53' E 031°02'0 0.0
2018-Jun-12 20:29S 29°53' E 031°02'0 0.0
2018-Jun-12 19:59S 29°53' E 031°02'0 0.0
2018-Jun-12 19:29S 29°53' E 031°02'0 0.0
2018-Jun-12 18:59S 29°53' E 031°02'0 0.0
2018-Jun-12 18:29S 29°53' E 031°02'0 0.0
2018-Jun-12 17:59S 29°53' E 031°02'0 0.0
2018-Jun-12 17:26S 29°53' E 031°02'0 0.0
2018-Jun-12 16:59S 29°53' E 031°02'0 0.0
2018-Jun-12 16:29S 29°53' E 031°02'0 0.0
2018-Jun-12 15:59S 29°53' E 031°02'0 0.0
2018-Jun-12 15:29S 29°53' E 031°02'0 0.0
2018-Jun-12 14:59S 29°53' E 031°02'0 0.0
2018-Jun-12 14:29S 29°53' E 031°02'0 0.0
2018-Jun-12 13:59S 29°53' E 031°02'0 0.0
2018-Jun-12 13:26S 29°53' E 031°02'0 0.0
2018-Jun-12 12:56S 29°53' E 031°02'0 0.0
2018-Jun-12 12:29S 29°53' E 031°02'0 0.0
2018-Jun-12 11:59S 29°53' E 031°02'0 0.0
2018-Jun-12 11:26S 29°53' E 031°02'0 0.0
2018-Jun-12 10:59S 29°53' E 031°02'0 0.0
2018-Jun-12 10:29S 29°53' E 031°02'0 0.0
2018-Jun-12 09:59S 29°53' E 031°02'0 0.0
2018-Jun-12 09:26S 29°53' E 031°02'0 0.0
2018-Jun-12 08:56S 29°53' E 031°02'0 0.0
2018-Jun-12 08:26S 29°53' E 031°02'0 0.0
2018-Jun-12 07:59S 29°53' E 031°02'0 0.0
2018-Jun-12 07:20S 29°53' E 031°02'0 0.0
2018-Jun-12 06:56S 29°53' E 031°02'0 0.0
2018-Jun-12 06:20S 29°53' E 031°02'0 0.0
2018-Jun-12 05:56S 29°53' E 031°02'0 0.0
2018-Jun-12 05:29S 29°53' E 031°02'0 0.0
2018-Jun-12 04:59S 29°53' E 031°02'0 0.0
2018-Jun-12 04:29S 29°53' E 031°02'0 0.0
2018-Jun-12 03:59S 29°53' E 031°02'0 0.0
2018-Jun-12 03:26S 29°53' E 031°02'0 0.0
2018-Jun-12 02:56S 29°53' E 031°02'0 0.0
2018-Jun-12 02:26S 29°53' E 031°02'0 0.0
2018-Jun-12 01:56S 29°53' E 031°02'0 0.0
2018-Jun-12 01:26S 29°53' E 031°02'0 0.0
2018-Jun-12 00:59S 29°53' E 031°02'0 0.0
2018-Jun-12 00:29S 29°53' E 031°02'0 0.0
2018-Jun-11 23:59S 29°53' E 031°02'0 0.0
2018-Jun-11 23:26S 29°53' E 031°02'0 0.0
2018-Jun-11 22:56S 29°53' E 031°02'0 0.0
2018-Jun-11 22:26S 29°53' E 031°02'0 0.0
2018-Jun-11 21:56S 29°53' E 031°02'0 0.0
2018-Jun-11 21:26S 29°53' E 031°02'0 0.0
2018-Jun-11 20:59S 29°53' E 031°02'0 0.0
2018-Jun-11 20:29S 29°53' E 031°02'0 0.0
2018-Jun-11 19:59S 29°53' E 031°02'0 0.0
2018-Jun-11 19:29S 29°53' E 031°02'0 0.0
2018-Jun-11 18:59S 29°53' E 031°02'0 0.0
2018-Jun-11 18:29S 29°53' E 031°02'0 0.0
2018-Jun-11 17:59S 29°53' E 031°02'0 0.0
2018-Jun-11 17:29S 29°53' E 031°02'0 0.0
2018-Jun-11 16:59S 29°53' E 031°02'0 0.0
2018-Jun-11 16:29S 29°53' E 031°02'0 0.0
2018-Jun-11 15:59S 29°53' E 031°02'0 0.0
2018-Jun-11 15:29S 29°53' E 031°02'0 0.0
2018-Jun-11 14:59S 29°53' E 031°02'0 0.0
2018-Jun-11 14:29S 29°53' E 031°02'0 0.0
2018-Jun-11 13:56S 29°53' E 031°02'0 0.0
2018-Jun-11 13:29S 29°53' E 031°02'0 0.0
2018-Jun-11 12:59S 29°53' E 031°02'0 0.0
2018-Jun-11 12:29S 29°53' E 031°02'0 0.0
2018-Jun-11 11:59S 29°53' E 031°02'0 0.0
2018-Jun-11 11:26S 29°53' E 031°02'0 0.0
2018-Jun-11 10:56S 29°53' E 031°02'0 0.0
2018-Jun-11 10:26S 29°53' E 031°02'0 0.0
2018-Jun-11 09:56S 29°53' E 031°02'0 0.0
2018-Jun-11 09:20S 29°53' E 031°02'0 0.0
2018-Jun-11 08:56S 29°53' E 031°02'0 0.0
2018-Jun-11 08:29S 29°53' E 031°02'0 0.0
2018-Jun-11 07:56S 29°53' E 031°02'0 0.0
2018-Jun-11 07:29S 29°53' E 031°02'0 0.0
2018-Jun-11 06:59S 29°53' E 031°02'0 0.0
2018-Jun-11 06:29S 29°53' E 031°02'0 0.0
2018-Jun-11 05:56S 29°53' E 031°02'0 0.0
2018-Jun-11 05:29S 29°53' E 031°02'0 0.0
2018-Jun-11 04:59S 29°53' E 031°02'0 0.0
2018-Jun-11 04:29S 29°53' E 031°02'0 0.0
2018-Jun-11 03:56S 29°53' E 031°02'0 0.0
2018-Jun-11 03:29S 29°53' E 031°02'0 0.0
2018-Jun-11 02:56S 29°53' E 031°02'0 0.0
2018-Jun-11 02:29S 29°53' E 031°02'0 0.0
2018-Jun-11 01:56S 29°53' E 031°02'0 0.0
2018-Jun-11 01:29S 29°53' E 031°02'0 0.0
2018-Jun-11 00:56S 29°53' E 031°02'0 0.0
2018-Jun-11 00:29S 29°53' E 031°02'0 0.0
2018-Jun-10 23:56S 29°53' E 031°02'0 0.0
2018-Jun-10 23:29S 29°53' E 031°02'0 0.0
2018-Jun-10 22:59S 29°53' E 031°02'0 0.0
2018-Jun-10 22:29S 29°53' E 031°02'0 0.0
2018-Jun-10 21:59S 29°53' E 031°02'0 0.0
2018-Jun-10 21:26S 29°53' E 031°02'0 0.0
2018-Jun-10 20:56S 29°53' E 031°02'0 0.0
2018-Jun-10 20:26S 29°53' E 031°02'0 0.0
2018-Jun-10 19:59S 29°53' E 031°02'0 0.0
2018-Jun-10 19:29S 29°53' E 031°02'0 0.0
2018-Jun-10 18:59S 29°53' E 031°02'0 0.0
2018-Jun-10 18:29S 29°53' E 031°02'0 0.0
2018-Jun-10 17:59S 29°53' E 031°02'0 0.0
2018-Jun-10 17:29S 29°53' E 031°02'0 0.0
2018-Jun-10 16:59S 29°53' E 031°02'0 0.0
2018-Jun-10 16:29S 29°53' E 031°02'0 0.0
2018-Jun-10 15:59S 29°53' E 031°02'0 0.0
2018-Jun-10 15:29S 29°53' E 031°02'0 0.0
2018-Jun-10 14:59S 29°53' E 031°02'0 0.0
2018-Jun-10 14:29S 29°53' E 031°02'0 0.0
2018-Jun-10 13:29S 29°53' E 031°02'0 0.0
2018-Jun-10 12:59S 29°53' E 031°02'0 0.0
2018-Jun-10 12:29S 29°53' E 031°02'0 0.0
2018-Jun-10 11:59S 29°53' E 031°02'0 0.0
2018-Jun-10 11:29S 29°53' E 031°02'0 0.0
2018-Jun-10 10:59S 29°53' E 031°02'0 0.0
2018-Jun-10 10:29S 29°53' E 031°02'0 0.0
2018-Jun-10 09:59S 29°53' E 031°02'0 0.0
2018-Jun-10 09:29S 29°53' E 031°02'0 0.0
2018-Jun-10 08:59S 29°53' E 031°02'0 0.0
2018-Jun-10 08:29S 29°53' E 031°02'0 0.2
2018-Jun-10 08:00S 29°53' E 031°02'2 4.1
2018-Jun-10 07:30S 29°52' E 031°04'4 7.6
2018-Jun-10 07:00S 29°49' E 031°07'3 6.1
2018-Jun-10 06:30S 29°49' E 031°10'3 5.9
2018-Jun-10 06:00S 29°48' E 031°14'4 7.2
2018-Jun-10 05:30S 29°48' E 031°18'3 6.1
2018-Jun-10 05:00S 29°47' E 031°21'3 6.1
2018-Jun-10 04:30S 29°46' E 031°25'510.6
2018-Jun-10 04:00S 29°45' E 031°31'612.2
2018-Jun-10 03:30S 29°44' E 031°38'612.7
2018-Jun-10 03:00S 29°43' E 031°45'712.9
2018-Jun-10 02:30S 29°41' E 031°52'613.1
2018-Jun-10 02:00S 29°40' E 031°59'713.0
2018-Jun-10 01:30S 29°39' E 032°07'713.2
2018-Jun-10 01:00S 29°37' E 032°14'613.1
2018-Jun-10 00:30S 29°36' E 032°21'713.2
2018-Jun-10 00:00S 29°34' E 032°29'713.0
2018-Jun-09 23:30S 29°33' E 032°36'912.8
2018-Jun-09 22:50S 29°31' E 032°46'412.8
2018-Jun-09 22:29S 29°30' E 032°51'1912.7
2018-Jun-09 21:01S 29°26' E 033°12'012.6
2018-Jun-09 20:59S 29°26' E 033°12'612.4
2018-Jun-09 20:30S 29°25' E 033°19'612.1
2018-Jun-09 20:00S 29°24' E 033°26'612.1
2018-Jun-09 19:30S 29°22' E 033°32'612.4
2018-Jun-09 19:00S 29°21' E 033°39'13813.1
2018-Jun-09 08:29S 28°51' E 036°13'714.0
2018-Jun-09 08:01S 28°50' E 036°21'1213.7
2018-Jun-09 07:06S 28°47' E 036°35'414.0
2018-Jun-09 06:50S 28°47' E 036°39'  
Track history (hours):
 
Tides and Currents Weather Stations Pressure Air Temp Water Temp Dewpoint Dewpoint Depression Visibility Wind Speed Wind Dir Waves Ship Positions

Torm Alexandra

Last reported at 2018-Jun-13 05:38 UTC. Time now 2018-Jul-22 12:34 UTC.
Position S 29°26' E 032°22'.
Warning: this ship's position is 39 days out of date.

Length 183 m; draft 8 m.

Type: Ship. MMSI: 564458000.

Date/timePositionNaut miles runAvg speedWind from/ knotsBaromVisibWave heightAir tempDewpointWater temp
2018-Jun-13 05:38S 29°26' E 032°22'110.0
2018-Jun-13 05:30S 29°27' E 032°21'510.1
2018-Jun-13 05:00S 29°29' E 032°15'510.0
2018-Jun-13 04:30S 29°31' E 032°10'5 9.9
2018-Jun-13 04:00S 29°33' E 032°05'5 9.7
2018-Jun-13 03:31S 29°34' E 031°60'5 9.5
2018-Jun-13 03:00S 29°36' E 031°54'5 9.4
2018-Jun-13 02:30S 29°38' E 031°50'5 9.5
2018-Jun-13 02:00S 29°40' E 031°45'5 9.3
2018-Jun-13 01:30S 29°41' E 031°40'510.2
2018-Jun-13 01:00S 29°43' E 031°34'611.3
2018-Jun-13 00:30S 29°45' E 031°28'611.7
2018-Jun-13 00:00S 29°48' E 031°22'611.6
2018-Jun-12 23:28S 29°49' E 031°15'511.9
2018-Jun-12 23:00S 29°50' E 031°09'510.2
2018-Jun-12 22:30S 29°52' E 031°03'2 2.9
2018-Jun-12 21:59S 29°53' E 031°02'0 0.0
2018-Jun-12 21:29S 29°53' E 031°02'0 0.0
2018-Jun-12 20:59S 29°53' E 031°02'0 0.0
2018-Jun-12 20:29S 29°53' E 031°02'0 0.0
2018-Jun-12 19:59S 29°53' E 031°02'0 0.0
2018-Jun-12 19:29S 29°53' E 031°02'0 0.0
2018-Jun-12 18:59S 29°53' E 031°02'0 0.0
2018-Jun-12 18:29S 29°53' E 031°02'0 0.0
2018-Jun-12 17:59S 29°53' E 031°02'0 0.0
2018-Jun-12 17:26S 29°53' E 031°02'0 0.0
2018-Jun-12 16:59S 29°53' E 031°02'0 0.0
2018-Jun-12 16:29S 29°53' E 031°02'0 0.0
2018-Jun-12 15:59S 29°53' E 031°02'0 0.0
2018-Jun-12 15:29S 29°53' E 031°02'0 0.0
2018-Jun-12 14:59S 29°53' E 031°02'0 0.0
2018-Jun-12 14:29S 29°53' E 031°02'0 0.0
2018-Jun-12 13:59S 29°53' E 031°02'0 0.0
2018-Jun-12 13:26S 29°53' E 031°02'0 0.0
2018-Jun-12 12:56S 29°53' E 031°02'0 0.0
2018-Jun-12 12:29S 29°53' E 031°02'0 0.0
2018-Jun-12 11:59S 29°53' E 031°02'0 0.0
2018-Jun-12 11:26S 29°53' E 031°02'0 0.0
2018-Jun-12 10:59S 29°53' E 031°02'0 0.0
2018-Jun-12 10:29S 29°53' E 031°02'0 0.0
2018-Jun-12 09:59S 29°53' E 031°02'0 0.0
2018-Jun-12 09:26S 29°53' E 031°02'0 0.0
2018-Jun-12 08:56S 29°53' E 031°02'0 0.0
2018-Jun-12 08:26S 29°53' E 031°02'0 0.0
2018-Jun-12 07:59S 29°53' E 031°02'0 0.0
2018-Jun-12 07:20S 29°53' E 031°02'0 0.0
2018-Jun-12 06:56S 29°53' E 031°02'0 0.0
2018-Jun-12 06:20S 29°53' E 031°02'0 0.0
2018-Jun-12 05:56S 29°53' E 031°02'0 0.0
2018-Jun-12 05:29S 29°53' E 031°02'0 0.0
2018-Jun-12 04:59S 29°53' E 031°02'0 0.0
2018-Jun-12 04:29S 29°53' E 031°02'0 0.0
2018-Jun-12 03:59S 29°53' E 031°02'0 0.0
2018-Jun-12 03:26S 29°53' E 031°02'0 0.0
2018-Jun-12 02:56S 29°53' E 031°02'0 0.0
2018-Jun-12 02:26S 29°53' E 031°02'0 0.0
2018-Jun-12 01:56S 29°53' E 031°02'0 0.0
2018-Jun-12 01:26S 29°53' E 031°02'0 0.0
2018-Jun-12 00:59S 29°53' E 031°02'0 0.0
2018-Jun-12 00:29S 29°53' E 031°02'0 0.0
2018-Jun-11 23:59S 29°53' E 031°02'0 0.0
2018-Jun-11 23:26S 29°53' E 031°02'0 0.0
2018-Jun-11 22:56S 29°53' E 031°02'0 0.0
2018-Jun-11 22:26S 29°53' E 031°02'0 0.0
2018-Jun-11 21:56S 29°53' E 031°02'0 0.0
2018-Jun-11 21:26S 29°53' E 031°02'0 0.0
2018-Jun-11 20:59S 29°53' E 031°02'0 0.0
2018-Jun-11 20:29S 29°53' E 031°02'0 0.0
2018-Jun-11 19:59S 29°53' E 031°02'0 0.0
2018-Jun-11 19:29S 29°53' E 031°02'0 0.0
2018-Jun-11 18:59S 29°53' E 031°02'0 0.0
2018-Jun-11 18:29S 29°53' E 031°02'0 0.0
2018-Jun-11 17:59S 29°53' E 031°02'0 0.0
2018-Jun-11 17:29S 29°53' E 031°02'0 0.0
2018-Jun-11 16:59S 29°53' E 031°02'0 0.0
2018-Jun-11 16:29S 29°53' E 031°02'0 0.0
2018-Jun-11 15:59S 29°53' E 031°02'0 0.0
2018-Jun-11 15:29S 29°53' E 031°02'0 0.0
2018-Jun-11 14:59S 29°53' E 031°02'0 0.0
2018-Jun-11 14:29S 29°53' E 031°02'0 0.0
2018-Jun-11 13:56S 29°53' E 031°02'0 0.0
2018-Jun-11 13:29S 29°53' E 031°02'0 0.0
2018-Jun-11 12:59S 29°53' E 031°02'0 0.0
2018-Jun-11 12:29S 29°53' E 031°02'0 0.0
2018-Jun-11 11:59S 29°53' E 031°02'0 0.0
2018-Jun-11 11:26S 29°53' E 031°02'0 0.0
2018-Jun-11 10:56S 29°53' E 031°02'0 0.0
2018-Jun-11 10:26S 29°53' E 031°02'0 0.0
2018-Jun-11 09:56S 29°53' E 031°02'0 0.0
2018-Jun-11 09:20S 29°53' E 031°02'0 0.0
2018-Jun-11 08:56S 29°53' E 031°02'0 0.0
2018-Jun-11 08:29S 29°53' E 031°02'0 0.0
2018-Jun-11 07:56S 29°53' E 031°02'0 0.0
2018-Jun-11 07:29S 29°53' E 031°02'0 0.0
2018-Jun-11 06:59S 29°53' E 031°02'0 0.0
2018-Jun-11 06:29S 29°53' E 031°02'0 0.0
2018-Jun-11 05:56S 29°53' E 031°02'0 0.0
2018-Jun-11 05:29S 29°53' E 031°02'0 0.0
2018-Jun-11 04:59S 29°53' E 031°02'0 0.0
2018-Jun-11 04:29S 29°53' E 031°02'0 0.0
2018-Jun-11 03:56S 29°53' E 031°02'0 0.0
2018-Jun-11 03:29S 29°53' E 031°02'0 0.0
2018-Jun-11 02:56S 29°53' E 031°02'0 0.0
2018-Jun-11 02:29S 29°53' E 031°02'0 0.0
2018-Jun-11 01:56S 29°53' E 031°02'0 0.0
2018-Jun-11 01:29S 29°53' E 031°02'0 0.0
2018-Jun-11 00:56S 29°53' E 031°02'0 0.0
2018-Jun-11 00:29S 29°53' E 031°02'0 0.0
2018-Jun-10 23:56S 29°53' E 031°02'0 0.0
2018-Jun-10 23:29S 29°53' E 031°02'0 0.0
2018-Jun-10 22:59S 29°53' E 031°02'0 0.0
2018-Jun-10 22:29S 29°53' E 031°02'0 0.0
2018-Jun-10 21:59S 29°53' E 031°02'0 0.0
2018-Jun-10 21:26S 29°53' E 031°02'0 0.0
2018-Jun-10 20:56S 29°53' E 031°02'0 0.0
2018-Jun-10 20:26S 29°53' E 031°02'0 0.0
2018-Jun-10 19:59S 29°53' E 031°02'0 0.0
2018-Jun-10 19:29S 29°53' E 031°02'0 0.0
2018-Jun-10 18:59S 29°53' E 031°02'0 0.0
2018-Jun-10 18:29S 29°53' E 031°02'0 0.0
2018-Jun-10 17:59S 29°53' E 031°02'0 0.0
2018-Jun-10 17:29S 29°53' E 031°02'0 0.0
2018-Jun-10 16:59S 29°53' E 031°02'0 0.0
2018-Jun-10 16:29S 29°53' E 031°02'0 0.0
2018-Jun-10 15:59S 29°53' E 031°02'0 0.0
2018-Jun-10 15:29S 29°53' E 031°02'0 0.0
2018-Jun-10 14:59S 29°53' E 031°02'0 0.0
2018-Jun-10 14:29S 29°53' E 031°02'0 0.0
2018-Jun-10 13:29S 29°53' E 031°02'0 0.0
2018-Jun-10 12:59S 29°53' E 031°02'0 0.0
2018-Jun-10 12:29S 29°53' E 031°02'0 0.0
2018-Jun-10 11:59S 29°53' E 031°02'0 0.0
2018-Jun-10 11:29S 29°53' E 031°02'0 0.0
2018-Jun-10 10:59S 29°53' E 031°02'0 0.0
2018-Jun-10 10:29S 29°53' E 031°02'0 0.0
2018-Jun-10 09:59S 29°53' E 031°02'0 0.0
2018-Jun-10 09:29S 29°53' E 031°02'0 0.0
2018-Jun-10 08:59S 29°53' E 031°02'0 0.0
2018-Jun-10 08:29S 29°53' E 031°02'0 0.2
2018-Jun-10 08:00S 29°53' E 031°02'2 4.1
2018-Jun-10 07:30S 29°52' E 031°04'4 7.6
2018-Jun-10 07:00S 29°49' E 031°07'3 6.1
2018-Jun-10 06:30S 29°49' E 031°10'3 5.9
2018-Jun-10 06:00S 29°48' E 031°14'4 7.2
2018-Jun-10 05:30S 29°48' E 031°18'3 6.1
2018-Jun-10 05:00S 29°47' E 031°21'3 6.1
2018-Jun-10 04:30S 29°46' E 031°25'510.6
2018-Jun-10 04:00S 29°45' E 031°31'612.2
2018-Jun-10 03:30S 29°44' E 031°38'612.7
2018-Jun-10 03:00S 29°43' E 031°45'712.9
2018-Jun-10 02:30S 29°41' E 031°52'613.1
2018-Jun-10 02:00S 29°40' E 031°59'713.0
2018-Jun-10 01:30S 29°39' E 032°07'713.2
2018-Jun-10 01:00S 29°37' E 032°14'613.1
2018-Jun-10 00:30S 29°36' E 032°21'713.2
2018-Jun-10 00:00S 29°34' E 032°29'713.0
2018-Jun-09 23:30S 29°33' E 032°36'912.8
2018-Jun-09 22:50S 29°31' E 032°46'412.8
2018-Jun-09 22:29S 29°30' E 032°51'1912.7
2018-Jun-09 21:01S 29°26' E 033°12'012.6
2018-Jun-09 20:59S 29°26' E 033°12'612.4
2018-Jun-09 20:30S 29°25' E 033°19'612.1
2018-Jun-09 20:00S 29°24' E 033°26'612.1
2018-Jun-09 19:30S 29°22' E 033°32'612.4
2018-Jun-09 19:00S 29°21' E 033°39'13813.1
2018-Jun-09 08:29S 28°51' E 036°13'714.0
2018-Jun-09 08:01S 28°50' E 036°21'1213.7
2018-Jun-09 07:06S 28°47' E 036°35'414.0
2018-Jun-09 06:50S 28°47' E 036°39'  

Dump ship's entire track history